createdAt,value
2022-11-13T00:02:26.870Z,99371.23
2022-11-13T00:05:13.211Z,99374.77
2022-11-13T00:07:59.863Z,99374.98
2022-11-13T00:10:46.666Z,99367.14
2022-11-13T00:13:33.907Z,99364.52
2022-11-13T00:16:22.019Z,99365.45
2022-11-13T00:19:08.498Z,99367.10
2022-11-13T00:21:56.943Z,99361.48
2022-11-13T00:24:43.124Z,99362.28
2022-11-13T00:27:32.662Z,99369.65
2022-11-13T00:30:19.804Z,99372.04
2022-11-13T00:33:06.853Z,99371.33
2022-11-13T00:35:53.688Z,99370.83
2022-11-13T00:38:40.151Z,99370.69
2022-11-13T00:41:26.944Z,99369.83
2022-11-13T00:44:13.568Z,99370.48
2022-11-13T00:47:00.204Z,99369.20
2022-11-13T00:49:46.801Z,99362.52
2022-11-13T00:52:33.186Z,99363.38
2022-11-13T00:55:20.091Z,99362.02
2022-11-13T00:58:06.959Z,99353.95
2022-11-13T01:00:53.697Z,99358.13
2022-11-13T01:03:41.345Z,99352.70
2022-11-13T01:06:28.364Z,99347.86
2022-11-13T01:09:15.069Z,99353.13
2022-11-13T01:12:03.837Z,99349.15
2022-11-13T01:14:50.484Z,99352.06
2022-11-13T01:17:37.775Z,99346.31
2022-11-13T01:20:25.052Z,99343.02
2022-11-13T01:23:12.117Z,99337.88
2022-11-13T01:26:26.399Z,99334.09
2022-11-13T01:29:13.046Z,99329.33
2022-11-13T01:31:59.756Z,99331.36
2022-11-13T01:34:46.448Z,99331.08
2022-11-13T01:37:33.224Z,99327.52
2022-11-13T01:40:20.444Z,99328.54
2022-11-13T01:43:42.420Z,99326.55
2022-11-13T01:46:40.861Z,99329.43
2022-11-13T01:49:31.935Z,99335.91
2022-11-13T01:52:26.244Z,99332.38
2022-11-13T01:55:16.087Z,99330.34
2022-11-13T01:58:05.660Z,99332.59
2022-11-13T02:00:52.196Z,99331.77
2022-11-13T02:03:38.803Z,99327.80
2022-11-13T02:06:28.601Z,99326.67
2022-11-13T02:09:17.941Z,99323.95
2022-11-13T02:12:07.234Z,99321.88
2022-11-13T02:14:54.996Z,99317.14
2022-11-13T02:17:48.837Z,99314.21
2022-11-13T02:20:52.774Z,99314.73
2022-11-13T02:23:48.281Z,99321.14
2022-11-13T02:26:37.619Z,99320.55
2022-11-13T02:29:24.729Z,99322.13
2022-11-13T02:32:11.571Z,99321.90
2022-11-13T02:34:58.413Z,99325.61
2022-11-13T02:37:44.957Z,99326.48
2022-11-13T02:40:33.583Z,99324.15
2022-11-13T02:43:20.182Z,99319.67
2022-11-13T02:46:06.421Z,99325.41
2022-11-13T02:48:52.810Z,99319.79
2022-11-13T02:51:39.256Z,99325.20
2022-11-13T02:54:26.018Z,99327.72
2022-11-13T02:57:12.413Z,99326.73
2022-11-13T02:59:59.089Z,99324.77
2022-11-13T03:02:45.925Z,99329.96
2022-11-13T03:05:32.799Z,99331.03
2022-11-13T03:08:19.975Z,99327.41
2022-11-13T03:11:11.061Z,99323.92
2022-11-13T03:13:57.533Z,99326.14
2022-11-13T03:16:44.136Z,99327.81
2022-11-13T03:19:30.716Z,99331.55
2022-11-13T03:22:17.008Z,99329.33
2022-11-13T03:25:09.869Z,99329.73
2022-11-13T03:27:57.322Z,99324.30
2022-11-13T03:30:43.721Z,99325.42
2022-11-13T03:33:31.518Z,99326.81
2022-11-13T03:36:18.085Z,99325.48
2022-11-13T03:39:04.886Z,99332.33
2022-11-13T03:41:51.586Z,99326.84
2022-11-13T03:44:38.126Z,99327.30
2022-11-13T03:47:24.869Z,99327.77
2022-11-13T03:50:11.415Z,99328.44
2022-11-13T03:52:57.984Z,99327.11
2022-11-13T03:55:44.929Z,99319.60
2022-11-13T03:58:31.353Z,99320.23
2022-11-13T04:01:18.073Z,99326.91
2022-11-13T04:04:04.712Z,99323.36
2022-11-13T04:06:51.162Z,99324.51
2022-11-13T04:09:37.588Z,99329.21
2022-11-13T04:12:24.363Z,99328.23
2022-11-13T04:15:13.518Z,99325.87
2022-11-13T04:18:00.343Z,99327.36
2022-11-13T04:20:47.153Z,99328.72
2022-11-13T04:23:33.704Z,99323.58
2022-11-13T04:26:20.343Z,99322.35
2022-11-13T04:29:07.048Z,99322.71
2022-11-13T04:31:53.379Z,99323.43
2022-11-13T04:34:41.092Z,99319.20
2022-11-13T04:37:27.582Z,99320.90
2022-11-13T04:40:14.107Z,99321.45
2022-11-13T04:43:00.560Z,99320.35
2022-11-13T04:45:47.120Z,99319.90
2022-11-13T04:48:33.458Z,99319.01
2022-11-13T04:51:20.210Z,99322.77
2022-11-13T04:54:06.727Z,99326.10
2022-11-13T04:56:53.258Z,99322.01
2022-11-13T04:59:40.060Z,99325.71
2022-11-13T05:02:26.776Z,99323.05
2022-11-13T05:05:13.445Z,99326.93
2022-11-13T05:08:00.153Z,99325.55
2022-11-13T05:10:46.687Z,99327.27
2022-11-13T05:13:35.359Z,99323.96
2022-11-13T05:16:21.844Z,99320.09
2022-11-13T05:19:08.541Z,99321.52
2022-11-13T05:21:55.510Z,99322.06
2022-11-13T05:24:41.970Z,99319.56
2022-11-13T05:27:28.777Z,99316.88
2022-11-13T05:30:15.918Z,99312.01
2022-11-13T05:33:02.695Z,99318.68
2022-11-13T05:35:49.457Z,99316.05
2022-11-13T05:38:36.559Z,99319.34
2022-11-13T05:41:23.185Z,99325.25
2022-11-13T05:44:09.659Z,99323.62
2022-11-13T05:46:56.238Z,99330.05
2022-11-13T05:49:42.435Z,99335.01
2022-11-13T05:52:29.042Z,99336.83
2022-11-13T05:55:15.745Z,99334.95
2022-11-13T05:58:01.999Z,99333.71
2022-11-13T06:00:48.637Z,99341.77
2022-11-13T06:03:35.379Z,99344.11
2022-11-13T06:06:23.506Z,99341.23
2022-11-13T06:09:10.489Z,99344.83
2022-11-13T06:11:57.091Z,99338.73
2022-11-13T06:14:43.577Z,99335.59
2022-11-13T06:17:29.978Z,99336.59
2022-11-13T06:20:16.585Z,99340.27
2022-11-13T06:23:03.080Z,99335.81
2022-11-13T06:25:49.570Z,99337.24
2022-11-13T06:28:37.078Z,99339.74
2022-11-13T06:31:26.529Z,99334.64
2022-11-13T06:34:13.748Z,99331.70
2022-11-13T06:37:01.793Z,99328.05
2022-11-13T06:39:48.652Z,99326.54
2022-11-13T06:42:35.309Z,99328.39
2022-11-13T06:45:21.883Z,99321.46
2022-11-13T06:48:08.589Z,99322.73
2022-11-13T06:50:55.139Z,99319.20
2022-11-13T06:53:42.399Z,99319.59
2022-11-13T06:56:29.430Z,99317.69
2022-11-13T06:59:16.190Z,99311.33
2022-11-13T07:02:03.435Z,99311.27
2022-11-13T07:04:49.995Z,99308.54
2022-11-13T07:07:37.032Z,99302.60
2022-11-13T07:10:23.763Z,99298.30
2022-11-13T07:13:10.745Z,99302.30
2022-11-13T07:16:15.528Z,99302.41
2022-11-13T07:19:03.130Z,99299.20
2022-11-13T07:21:49.882Z,99300.06
2022-11-13T07:24:36.313Z,99306.05
2022-11-13T07:27:23.303Z,99310.81
2022-11-13T07:30:10.745Z,99309.96
2022-11-13T07:33:02.740Z,99310.90
2022-11-13T07:35:49.217Z,99308.56
2022-11-13T07:38:38.000Z,99308.12
2022-11-13T07:41:24.518Z,99306.98
2022-11-13T07:44:12.942Z,99299.85
2022-11-13T07:47:02.180Z,99301.88
2022-11-13T07:49:48.736Z,99304.65
2022-11-13T07:52:35.204Z,99291.81
2022-11-13T07:55:21.920Z,99289.35
2022-11-13T07:58:09.819Z,99294.48
2022-11-13T08:01:02.318Z,99292.30
2022-11-13T08:03:48.942Z,99293.76
2022-11-13T08:06:39.010Z,99286.88
2022-11-13T08:09:25.306Z,99281.42
2022-11-13T08:12:11.628Z,99284.02
2022-11-13T08:14:58.330Z,99284.16
2022-11-13T08:17:44.716Z,99284.59
2022-11-13T08:20:31.852Z,99280.10
2022-11-13T08:23:18.326Z,99277.56
2022-11-13T08:26:06.759Z,99279.17
2022-11-13T08:28:52.992Z,99275.36
2022-11-13T08:31:39.542Z,99273.94
2022-11-13T08:34:26.144Z,99265.39
2022-11-13T08:37:12.632Z,99268.98
2022-11-13T08:39:59.172Z,99268.85
2022-11-13T08:42:46.203Z,99272.14
2022-11-13T08:45:32.815Z,99280.63
2022-11-13T08:48:19.689Z,99283.02
2022-11-13T08:51:06.223Z,99282.33
2022-11-13T08:53:53.928Z,99277.77
2022-11-13T08:56:40.607Z,99277.89
2022-11-13T08:59:27.584Z,99268.99
2022-11-13T09:02:15.624Z,99269.19
2022-11-13T09:05:02.126Z,99263.89
2022-11-13T09:07:49.496Z,99266.91
2022-11-13T09:10:35.826Z,99259.95
2022-11-13T09:13:22.347Z,99259.06
2022-11-13T09:16:09.119Z,99252.27
2022-11-13T09:18:55.845Z,99252.37
2022-11-13T09:21:42.479Z,99254.26
2022-11-13T09:24:29.272Z,99249.41
2022-11-13T09:27:18.271Z,99242.31
2022-11-13T09:30:05.920Z,99240.38
2022-11-13T09:33:00.927Z,99240.90
2022-11-13T09:35:47.585Z,99239.70
2022-11-13T09:38:34.441Z,99231.23
2022-11-13T09:41:26.312Z,99225.05
2022-11-13T09:44:19.217Z,99229.08
2022-11-13T09:47:20.079Z,99223.52
2022-11-13T09:50:28.323Z,99222.20
2022-11-13T09:53:16.241Z,99216.31
2022-11-13T09:56:14.830Z,99214.91
2022-11-13T09:59:25.113Z,99207.52
2022-11-13T10:02:23.379Z,99202.08
2022-11-13T10:05:35.123Z,99199.51
2022-11-13T10:08:21.420Z,99202.35
2022-11-13T10:11:26.176Z,99199.38
2022-11-13T10:14:31.681Z,99196.27
2022-11-13T10:17:43.879Z,99194.84
2022-11-13T10:20:50.872Z,99189.90
2022-11-13T10:23:38.657Z,99182.83
2022-11-13T10:26:30.010Z,99182.70
2022-11-13T10:29:20.805Z,99181.06
2022-11-13T10:32:24.465Z,99183.27
2022-11-13T10:35:30.190Z,99180.62
2022-11-13T10:38:24.588Z,99177.38
2022-11-13T10:41:21.347Z,99181.88
2022-11-13T10:44:23.101Z,99182.86
2022-11-13T10:47:49.110Z,99182.20
2022-11-13T10:50:30.754Z,99177.20
2022-11-13T10:53:19.475Z,99170.35
2022-11-13T10:56:30.711Z,99164.58
2022-11-13T10:59:19.642Z,99157.75
2022-11-13T11:02:16.976Z,99151.23
2022-11-13T11:05:16.113Z,99147.52
2022-11-13T11:08:10.280Z,99142.60
2022-11-13T11:11:19.611Z,99139.19
2022-11-13T11:14:23.769Z,99138.50
2022-11-13T11:17:14.198Z,99140.64
2022-11-13T11:20:07.453Z,99136.11
2022-11-13T11:23:02.366Z,99130.90
2022-11-13T11:25:58.837Z,99124.89
2022-11-13T11:29:09.045Z,99121.67
2022-11-13T11:32:37.924Z,99111.84
2022-11-13T11:35:40.641Z,99108.73
2022-11-13T11:38:31.548Z,99107.77
2022-11-13T11:41:26.419Z,99106.70
2022-11-13T11:44:25.413Z,99101.38
2022-11-13T11:47:18.674Z,99104.84
2022-11-13T11:50:12.417Z,99105.36
2022-11-13T11:53:17.044Z,99106.64
2022-11-13T11:56:25.328Z,99104.89
2022-11-13T11:59:40.720Z,99100.37
2022-11-13T12:02:45.798Z,99098.34
2022-11-13T12:05:54.143Z,99097.37
2022-11-13T12:08:51.690Z,99098.08
2022-11-13T12:11:59.915Z,99089.73
2022-11-13T12:15:25.070Z,99087.98
2022-11-13T12:18:36.356Z,99088.38
2022-11-13T12:21:37.223Z,99082.50
2022-11-13T12:24:35.862Z,99082.41
2022-11-13T12:27:44.173Z,99078.61
2022-11-13T12:30:52.420Z,99079.65
2022-11-13T12:34:12.373Z,99076.08
2022-11-13T12:37:02.189Z,99077.66
2022-11-13T12:39:54.692Z,99078.77
2022-11-13T12:43:07.510Z,99072.27
2022-11-13T12:45:58.729Z,99066.58
2022-11-13T12:48:47.877Z,99063.27
2022-11-13T12:51:40.411Z,99065.09
2022-11-13T12:54:33.469Z,99063.84
2022-11-13T12:57:29.944Z,99064.91
2022-11-13T13:00:27.383Z,99063.26
2022-11-13T13:03:33.705Z,99057.42
2022-11-13T13:06:58.943Z,99054.59
2022-11-13T13:09:48.106Z,99055.74
2022-11-13T13:13:12.887Z,99059.87
2022-11-13T13:16:05.371Z,99052.32
2022-11-13T13:18:53.531Z,99049.80
2022-11-13T13:21:43.955Z,99048.94
2022-11-13T13:24:38.402Z,99050.11
2022-11-13T13:27:31.090Z,99048.05
2022-11-13T13:30:20.725Z,99051.66
2022-11-13T13:33:30.494Z,99056.44
2022-11-13T13:36:38.657Z,99050.49
2022-11-13T13:39:38.305Z,99048.54
2022-11-13T13:42:55.466Z,99039.34
2022-11-13T13:46:13.881Z,99041.26
2022-11-13T13:49:14.669Z,99040.57
2022-11-13T13:52:01.211Z,99043.91
2022-11-13T13:54:48.634Z,99040.67
2022-11-13T13:57:41.237Z,99046.09
2022-11-13T14:00:29.284Z,99037.96
2022-11-13T14:03:21.981Z,99034.38
2022-11-13T14:06:27.054Z,99027.55
2022-11-13T14:09:23.812Z,99026.47
2022-11-13T14:12:21.857Z,99026.35
2022-11-13T14:15:32.573Z,99026.45
2022-11-13T14:18:19.097Z,99022.03
2022-11-13T14:21:16.209Z,99020.83
2022-11-13T14:24:03.727Z,99018.14
2022-11-13T14:26:52.928Z,99018.42
2022-11-13T14:29:52.479Z,99018.49
2022-11-13T14:32:45.699Z,99014.19
2022-11-13T14:35:33.901Z,99012.25
2022-11-13T14:38:26.455Z,99013.21
2022-11-13T14:41:33.525Z,99016.50
2022-11-13T14:44:36.432Z,99012.90
2022-11-13T14:47:25.509Z,99009.87
2022-11-13T14:50:23.275Z,99009.32
2022-11-13T14:53:11.192Z,99009.04
2022-11-13T14:56:05.605Z,99010.86
2022-11-13T14:58:53.323Z,99004.36
2022-11-13T15:01:40.763Z,99005.86
2022-11-13T15:04:28.495Z,99000.29
2022-11-13T15:07:29.819Z,99006.44
2022-11-13T15:10:21.902Z,99010.27
2022-11-13T15:13:14.477Z,99008.63
2022-11-13T15:16:01.037Z,99009.27
2022-11-13T15:18:55.569Z,99010.31
2022-11-13T15:22:05.528Z,99005.44
2022-11-13T15:24:52.966Z,99007.33
2022-11-13T15:27:43.076Z,99000.50
2022-11-13T15:30:30.447Z,99000.56
2022-11-13T15:33:18.394Z,99006.44
2022-11-13T15:36:05.801Z,99006.86
2022-11-13T15:38:52.233Z,99006.11
2022-11-13T15:41:40.114Z,99009.86
2022-11-13T15:44:27.162Z,99007.86
2022-11-13T15:47:34.664Z,99009.91
2022-11-13T15:50:21.184Z,99004.00
2022-11-13T15:53:12.372Z,99007.60
2022-11-13T15:56:03.075Z,99005.66
2022-11-13T15:58:50.032Z,99013.11
2022-11-13T16:01:36.594Z,99012.31
2022-11-13T16:04:24.154Z,99018.55
2022-11-13T16:07:19.008Z,99017.34
2022-11-13T16:10:06.184Z,99018.37
2022-11-13T16:12:54.147Z,99026.02
2022-11-13T16:15:43.240Z,99025.18
2022-11-13T16:18:31.934Z,99026.33
2022-11-13T16:21:20.926Z,99024.33
2022-11-13T16:24:09.129Z,99029.62
2022-11-13T16:26:58.204Z,99026.52
2022-11-13T16:29:45.722Z,99023.50
2022-11-13T16:32:32.118Z,99025.84
2022-11-13T16:35:21.256Z,99026.52
2022-11-13T16:38:13.339Z,99023.39
2022-11-13T16:40:59.914Z,99017.98
2022-11-13T16:43:46.574Z,99022.20
2022-11-13T16:46:35.702Z,99025.51
2022-11-13T16:49:22.112Z,99022.81
2022-11-13T16:52:08.952Z,99022.14
2022-11-13T16:54:55.612Z,99020.85
2022-11-13T16:57:42.098Z,99026.17
2022-11-13T17:00:30.113Z,99030.89
2022-11-13T17:03:16.872Z,99031.44
2022-11-13T17:06:03.716Z,99028.61
2022-11-13T17:08:51.807Z,99025.98
2022-11-13T17:11:38.576Z,99020.79
2022-11-13T17:14:29.075Z,99020.56
2022-11-13T17:17:15.923Z,99015.67
2022-11-13T17:20:05.762Z,99014.31
2022-11-13T17:22:52.470Z,99014.73
2022-11-13T17:25:39.136Z,99017.35
2022-11-13T17:28:25.519Z,99015.16
2022-11-13T17:31:15.086Z,99015.45
2022-11-13T17:34:01.721Z,99011.77
2022-11-13T17:36:49.680Z,99010.80
2022-11-13T17:39:36.101Z,99008.52
2022-11-13T17:42:22.767Z,99008.20
2022-11-13T17:45:10.615Z,99005.43
2022-11-13T17:47:58.839Z,99003.82
2022-11-13T17:50:55.879Z,99004.91
2022-11-13T17:53:44.203Z,98999.52
2022-11-13T17:56:31.161Z,99000.94
2022-11-13T17:59:17.971Z,98998.21
2022-11-13T18:02:04.905Z,98994.97
2022-11-13T18:04:54.169Z,98998.60
2022-11-13T18:07:40.501Z,98998.95
2022-11-13T18:10:27.556Z,99000.63
2022-11-13T18:13:14.210Z,98996.25
2022-11-13T18:16:10.071Z,98996.73
2022-11-13T18:18:59.075Z,99001.18
2022-11-13T18:21:45.841Z,99001.35
2022-11-13T18:24:32.694Z,98997.02
2022-11-13T18:27:19.939Z,98997.57
2022-11-13T18:30:08.045Z,98995.67
2022-11-13T18:32:54.875Z,98992.41
2022-11-13T18:35:41.496Z,98991.59
2022-11-13T18:38:28.850Z,98985.42
2022-11-13T18:41:18.357Z,98984.53
2022-11-13T18:44:05.196Z,98986.64
2022-11-13T18:46:51.664Z,98981.05
2022-11-13T18:49:38.321Z,98985.02
2022-11-13T18:52:25.331Z,98981.95
2022-11-13T18:55:11.749Z,98983.45
2022-11-13T18:57:58.888Z,98978.08
2022-11-13T19:00:45.747Z,98972.20
2022-11-13T19:03:33.571Z,98972.50
2022-11-13T19:06:22.200Z,98974.79
2022-11-13T19:09:14.612Z,98973.66
2022-11-13T19:12:01.808Z,98974.84
2022-11-13T19:14:49.292Z,98974.14
2022-11-13T19:17:36.171Z,98972.61
2022-11-13T19:20:22.673Z,98975.20
2022-11-13T19:23:09.616Z,98969.77
2022-11-13T19:25:56.291Z,98964.10
2022-11-13T19:28:51.144Z,98957.81
2022-11-13T19:31:38.018Z,98964.21
2022-11-13T19:34:24.625Z,98963.63
2022-11-13T19:37:14.925Z,98963.61
2022-11-13T19:40:06.010Z,98963.52
2022-11-13T19:42:53.325Z,98966.08
2022-11-13T19:45:39.963Z,98964.95
2022-11-13T19:48:26.512Z,98964.65
2022-11-13T19:51:19.136Z,98966.30
2022-11-13T19:54:05.645Z,98963.91
2022-11-13T19:56:52.208Z,98962.30
2022-11-13T19:59:39.753Z,98954.44
2022-11-13T20:02:26.677Z,98955.22
2022-11-13T20:05:13.014Z,98956.05
2022-11-13T20:07:59.734Z,98957.36
2022-11-13T20:10:46.362Z,98957.25
2022-11-13T20:13:37.755Z,98956.11
2022-11-13T20:16:26.019Z,98959.84
2022-11-13T20:19:14.274Z,98956.09
2022-11-13T20:22:01.005Z,98959.13
2022-11-13T20:24:47.339Z,98959.98
2022-11-13T20:27:37.222Z,98958.88
2022-11-13T20:30:24.198Z,98960.13
2022-11-13T20:33:11.221Z,98959.46
2022-11-13T20:35:57.849Z,98958.11
2022-11-13T20:38:51.965Z,98953.22
2022-11-13T20:41:38.336Z,98952.98
2022-11-13T20:44:25.070Z,98949.68
2022-11-13T20:47:11.732Z,98948.83
2022-11-13T20:49:58.409Z,98948.70
2022-11-13T20:52:45.137Z,98945.55
2022-11-13T20:55:32.019Z,98944.99
2022-11-13T20:58:18.814Z,98940.12
2022-11-13T21:01:09.081Z,98933.08
2022-11-13T21:03:56.279Z,98928.91
2022-11-13T21:06:42.922Z,98929.96
2022-11-13T21:09:29.359Z,98931.79
2022-11-13T21:12:15.987Z,98931.48
2022-11-13T21:15:04.144Z,98929.48
2022-11-13T21:17:50.871Z,98928.90
2022-11-13T21:20:37.820Z,98930.96
2022-11-13T21:23:24.671Z,98932.08
2022-11-13T21:26:11.555Z,98932.73
2022-11-13T21:29:00.639Z,98931.95
2022-11-13T21:31:47.281Z,98932.36
2022-11-13T21:34:33.949Z,98930.94
2022-11-13T21:37:20.419Z,98933.83
2022-11-13T21:40:09.367Z,98932.06
2022-11-13T21:42:56.375Z,98932.48
2022-11-13T21:45:42.998Z,98931.82
2022-11-13T21:48:33.130Z,98928.16
2022-11-13T21:51:20.368Z,98930.63
2022-11-13T21:54:08.009Z,98927.17
2022-11-13T21:56:54.190Z,98929.02
2022-11-13T21:59:40.575Z,98930.39
2022-11-13T22:02:27.313Z,98935.19
2022-11-13T22:05:14.449Z,98933.91
2022-11-13T22:08:01.054Z,98927.72
2022-11-13T22:10:48.041Z,98926.95
2022-11-13T22:13:35.036Z,98929.09
2022-11-13T22:16:22.879Z,98931.56
2022-11-13T22:19:13.899Z,98932.28
2022-11-13T22:22:01.147Z,98929.86
2022-11-13T22:24:47.710Z,98928.12
2022-11-13T22:27:34.689Z,98926.13
2022-11-13T22:30:21.311Z,98924.29
2022-11-13T22:33:07.902Z,98920.98
2022-11-13T22:36:20.474Z,98920.69
2022-11-13T22:39:07.033Z,98918.19
2022-11-13T22:41:53.749Z,98919.92
2022-11-13T22:44:55.397Z,98914.43
2022-11-13T22:47:43.460Z,98912.42
2022-11-13T22:50:29.832Z,98910.56
2022-11-13T22:53:16.613Z,98913.16
2022-11-13T22:56:09.995Z,98911.57
2022-11-13T22:58:59.019Z,98912.46
2022-11-13T23:01:46.563Z,98907.45
2022-11-13T23:04:33.011Z,98908.17
2022-11-13T23:07:19.904Z,98905.95
2022-11-13T23:10:07.567Z,98906.56
2022-11-13T23:12:54.413Z,98905.60
2022-11-13T23:15:41.988Z,98900.08
2022-11-13T23:18:32.730Z,98900.30
2022-11-13T23:21:20.500Z,98893.23
2022-11-13T23:24:10.154Z,98888.44
2022-11-13T23:26:56.959Z,98891.17
2022-11-13T23:29:47.327Z,98887.57
2022-11-13T23:32:36.886Z,98888.08
2022-11-13T23:35:23.150Z,98884.10
2022-11-13T23:38:10.998Z,98884.46
2022-11-13T23:40:59.623Z,98885.80
2022-11-13T23:44:08.691Z,98879.59
2022-11-13T23:46:53.141Z,98884.32
2022-11-13T23:49:41.054Z,98887.02
2022-11-13T23:52:27.657Z,98883.48
2022-11-13T23:55:14.621Z,98883.55
2022-11-13T23:58:04.195Z,98881.41
